createdAt,value
2023-04-07T00:00:06.276Z,79.78
2023-04-07T00:02:43.011Z,79.87
2023-04-07T00:05:12.120Z,80.68
2023-04-07T00:07:52.300Z,81.24
2023-04-07T00:10:24.415Z,81.76
2023-04-07T00:12:52.322Z,81.75
2023-04-07T00:15:20.403Z,82.50
2023-04-07T00:17:49.664Z,82.43
2023-04-07T00:20:17.586Z,82.67
2023-04-07T00:22:45.464Z,82.63
2023-04-07T00:25:13.344Z,83.54
2023-04-07T00:27:41.147Z,83.57
2023-04-07T00:30:09.799Z,83.25
2023-04-07T00:32:37.681Z,83.62
2023-04-07T00:35:08.177Z,83.52
2023-04-07T00:37:36.365Z,83.07
2023-04-07T00:40:04.610Z,83.43
2023-04-07T00:42:32.511Z,83.10
2023-04-07T00:45:00.398Z,83.09
2023-04-07T00:47:28.463Z,83.52
2023-04-07T00:49:56.334Z,83.00
2023-04-07T00:52:28.891Z,83.23
2023-04-07T00:54:57.029Z,83.24
2023-04-07T00:57:25.445Z,82.62
2023-04-07T00:59:54.194Z,83.24
2023-04-07T01:02:28.244Z,83.27
2023-04-07T01:05:06.305Z,83.52
2023-04-07T01:07:41.224Z,83.13
2023-04-07T01:10:17.382Z,82.91
2023-04-07T01:12:58.384Z,84.72
2023-04-07T01:15:31.204Z,84.93
2023-04-07T01:18:07.758Z,84.99
2023-04-07T01:20:37.580Z,85.92
2023-04-07T01:23:08.814Z,84.39
2023-04-07T01:26:05.349Z,84.89
2023-04-07T01:28:55.930Z,85.10
2023-04-07T01:31:27.765Z,86.03
2023-04-07T01:33:58.515Z,87.23
2023-04-07T01:36:29.248Z,88.57
2023-04-07T01:38:58.277Z,88.61
2023-04-07T01:41:27.631Z,89.24
2023-04-07T01:43:56.429Z,89.47
2023-04-07T01:46:27.244Z,89.59
2023-04-07T01:48:56.923Z,90.35
2023-04-07T01:51:26.614Z,90.35
2023-04-07T01:53:55.350Z,90.19
2023-04-07T01:56:23.600Z,90.61
2023-04-07T01:58:54.116Z,91.27
2023-04-07T02:01:24.372Z,91.19
2023-04-07T02:03:57.678Z,91.56
2023-04-07T02:06:30.221Z,89.36
2023-04-07T02:09:03.490Z,88.92
2023-04-07T02:11:34.445Z,88.33
2023-04-07T02:14:07.442Z,87.68
2023-04-07T02:16:50.292Z,86.77
2023-04-07T02:19:20.051Z,85.81
2023-04-07T02:21:49.670Z,85.32
2023-04-07T02:24:20.738Z,85.00
2023-04-07T02:26:49.190Z,84.44
2023-04-07T02:29:17.085Z,82.39
2023-04-07T02:31:44.983Z,82.21
2023-04-07T02:34:12.949Z,82.31
2023-04-07T02:36:42.242Z,82.37
2023-04-07T02:39:10.519Z,82.32
2023-04-07T02:41:38.384Z,83.13
2023-04-07T02:44:06.358Z,84.63
2023-04-07T02:46:34.251Z,84.59
2023-04-07T02:49:02.141Z,84.03
2023-04-07T02:51:29.989Z,83.77
2023-04-07T02:53:59.216Z,84.23
2023-04-07T02:56:27.054Z,84.22
2023-04-07T02:58:55.304Z,84.77
2023-04-07T03:01:23.390Z,84.55
2023-04-07T03:03:51.743Z,85.37
2023-04-07T03:06:23.938Z,85.36
2023-04-07T03:09:05.756Z,85.46
2023-04-07T03:11:34.815Z,85.22
2023-04-07T03:14:02.627Z,85.46
2023-04-07T03:16:31.975Z,85.59
2023-04-07T03:19:11.718Z,85.46
2023-04-07T03:21:45.480Z,86.61
2023-04-07T03:24:14.771Z,87.26
2023-04-07T03:26:42.585Z,87.55
2023-04-07T03:29:32.782Z,87.72
2023-04-07T03:32:02.161Z,87.30
2023-04-07T03:34:29.956Z,87.00
2023-04-07T03:36:59.987Z,87.04
2023-04-07T03:39:31.141Z,87.60
2023-04-07T03:42:01.759Z,87.84
2023-04-07T03:44:32.957Z,87.69
2023-04-07T03:47:02.341Z,87.46
2023-04-07T03:49:31.401Z,87.85
2023-04-07T03:52:03.034Z,88.30
2023-04-07T03:54:32.262Z,88.37
2023-04-07T03:57:01.476Z,88.05
2023-04-07T03:59:29.914Z,88.01
2023-04-07T04:02:02.842Z,87.83
2023-04-07T04:04:31.422Z,87.84
2023-04-07T04:06:59.921Z,87.85
2023-04-07T04:09:40.188Z,88.31
2023-04-07T04:12:08.411Z,88.89
2023-04-07T04:14:42.621Z,89.00
2023-04-07T04:17:14.351Z,89.79
2023-04-07T04:19:46.425Z,89.81
2023-04-07T04:22:26.052Z,89.97
2023-04-07T04:25:00.564Z,89.86
2023-04-07T04:27:29.552Z,89.99
2023-04-07T04:30:07.248Z,90.76
2023-04-07T04:32:43.696Z,91.00
2023-04-07T04:35:11.838Z,90.81
2023-04-07T04:37:49.457Z,90.51
2023-04-07T04:40:18.899Z,90.15
2023-04-07T04:42:49.469Z,90.17
2023-04-07T04:45:17.724Z,90.56
2023-04-07T04:47:48.455Z,90.46
2023-04-07T04:50:17.875Z,90.68
2023-04-07T04:52:47.548Z,90.23
2023-04-07T04:55:23.989Z,89.58
2023-04-07T04:57:54.089Z,89.89
2023-04-07T05:00:30.930Z,89.89
2023-04-07T05:03:04.398Z,89.55
2023-04-07T05:05:37.733Z,89.42
2023-04-07T05:08:07.325Z,89.53
2023-04-07T05:10:41.255Z,89.99
2023-04-07T05:13:14.066Z,90.11
2023-04-07T05:15:42.414Z,90.01
2023-04-07T05:18:12.805Z,90.43
2023-04-07T05:20:41.925Z,90.57
2023-04-07T05:23:11.294Z,89.64
2023-04-07T05:25:40.651Z,90.16
2023-04-07T05:28:09.494Z,90.04
2023-04-07T05:30:37.413Z,89.79
2023-04-07T05:33:06.007Z,89.66
2023-04-07T05:35:50.000Z,89.86
2023-04-07T05:38:17.910Z,89.79
2023-04-07T05:40:48.239Z,89.79
2023-04-07T05:43:23.353Z,89.35
2023-04-07T05:45:51.440Z,89.78
2023-04-07T05:48:19.685Z,88.78
2023-04-07T05:50:48.590Z,87.87
2023-04-07T05:53:18.985Z,86.29
2023-04-07T05:55:48.935Z,85.27
2023-04-07T05:58:26.159Z,84.93
2023-04-07T06:00:56.056Z,84.66
2023-04-07T06:03:24.103Z,76.73
2023-04-07T06:06:11.288Z,74.84
2023-04-07T06:08:39.373Z,74.65
2023-04-07T06:11:08.708Z,74.13
2023-04-07T06:13:36.510Z,73.44
2023-04-07T06:16:04.404Z,73.13
2023-04-07T06:18:32.351Z,73.85
2023-04-07T06:21:00.567Z,71.21
2023-04-07T06:23:28.394Z,67.98
2023-04-07T06:25:56.465Z,69.83
2023-04-07T06:28:25.755Z,66.58
2023-04-07T06:30:53.745Z,68.22
2023-04-07T06:33:25.544Z,67.97
2023-04-07T06:35:53.764Z,67.80
2023-04-07T06:38:21.709Z,66.87
2023-04-07T06:40:49.595Z,66.35
2023-04-07T06:43:17.424Z,66.32
2023-04-07T06:45:53.962Z,66.75
2023-04-07T06:48:21.884Z,67.43
2023-04-07T06:50:50.701Z,69.34
2023-04-07T06:53:18.534Z,68.31
2023-04-07T06:55:46.456Z,67.79
2023-04-07T06:58:14.353Z,66.10
2023-04-07T07:00:42.148Z,63.40
2023-04-07T07:03:11.461Z,63.28
2023-04-07T07:05:39.381Z,65.95
2023-04-07T07:08:07.315Z,65.87
2023-04-07T07:10:35.198Z,67.42
2023-04-07T07:13:03.328Z,66.72
2023-04-07T07:15:31.185Z,65.84
2023-04-07T07:17:59.192Z,65.65
2023-04-07T07:20:28.434Z,67.28
2023-04-07T07:22:56.669Z,67.56
2023-04-07T07:25:26.822Z,67.10
2023-04-07T07:27:54.905Z,66.89
2023-04-07T07:30:24.055Z,66.51
2023-04-07T07:32:53.627Z,66.04
2023-04-07T07:35:21.927Z,67.28
2023-04-07T07:37:51.970Z,67.55
2023-04-07T07:40:19.868Z,67.00
2023-04-07T07:42:48.111Z,66.00
2023-04-07T07:45:17.557Z,67.41
2023-04-07T07:47:45.455Z,64.95
2023-04-07T07:50:13.320Z,63.68
2023-04-07T07:52:41.776Z,64.26
2023-04-07T07:55:11.289Z,65.30
2023-04-07T07:57:39.170Z,64.17
2023-04-07T08:00:08.516Z,65.54
2023-04-07T08:02:42.536Z,64.58
2023-04-07T08:05:11.384Z,65.14
2023-04-07T08:07:39.236Z,64.86
2023-04-07T08:10:07.998Z,64.57
2023-04-07T08:12:37.264Z,61.94
2023-04-07T08:15:06.297Z,61.04
2023-04-07T08:17:34.228Z,61.63
2023-04-07T08:20:02.195Z,60.21
2023-04-07T08:22:30.166Z,56.29
2023-04-07T08:24:58.073Z,59.60
2023-04-07T08:27:26.065Z,58.53
2023-04-07T08:30:02.401Z,55.64
2023-04-07T08:32:36.603Z,55.22
2023-04-07T08:35:04.906Z,56.81
2023-04-07T08:37:32.854Z,53.18
2023-04-07T08:40:01.677Z,52.55
2023-04-07T08:42:32.204Z,52.94
2023-04-07T08:45:04.668Z,55.08
2023-04-07T08:47:34.181Z,56.56
2023-04-07T08:50:04.054Z,52.96
2023-04-07T08:52:35.588Z,50.75
2023-04-07T08:55:06.848Z,50.77
2023-04-07T08:57:35.267Z,51.65
2023-04-07T09:00:05.968Z,50.92
2023-04-07T09:02:35.414Z,50.73
2023-04-07T09:05:06.187Z,50.92
2023-04-07T09:07:35.798Z,49.38
2023-04-07T09:10:04.543Z,48.07
2023-04-07T09:12:33.951Z,48.75
2023-04-07T09:15:02.062Z,48.44
2023-04-07T09:17:31.330Z,48.32
2023-04-07T09:20:00.821Z,49.54
2023-04-07T09:22:46.702Z,48.82
2023-04-07T09:25:16.578Z,48.25
2023-04-07T09:27:58.910Z,49.36
2023-04-07T09:30:28.050Z,48.17
2023-04-07T09:32:57.818Z,49.66
2023-04-07T09:35:28.233Z,48.96
2023-04-07T09:38:03.658Z,48.43
2023-04-07T09:40:32.545Z,49.52
2023-04-07T09:43:00.586Z,48.15
2023-04-07T09:48:06.539Z,49.09
2023-04-07T09:50:36.133Z,48.53
2023-04-07T09:53:04.913Z,47.94
2023-04-07T09:55:33.828Z,48.24
2023-04-07T09:58:02.719Z,49.12
2023-04-07T10:00:30.658Z,48.82
2023-04-07T10:02:59.036Z,47.57
2023-04-07T10:05:29.078Z,47.56
2023-04-07T10:07:57.540Z,47.61
2023-04-07T10:10:26.501Z,46.64
2023-04-07T10:12:58.018Z,48.75
2023-04-07T10:15:26.576Z,47.77
2023-04-07T10:17:56.684Z,46.40
2023-04-07T10:20:25.400Z,48.46
2023-04-07T10:22:59.516Z,47.61
2023-04-07T10:25:27.721Z,46.59
2023-04-07T10:28:00.638Z,46.70
2023-04-07T10:30:31.607Z,47.63
2023-04-07T10:32:59.914Z,45.86
2023-04-07T10:35:28.385Z,45.54
2023-04-07T10:38:15.259Z,44.71
2023-04-07T10:40:44.083Z,45.81
2023-04-07T10:43:12.388Z,45.07
2023-04-07T10:46:00.500Z,45.44
2023-04-07T10:48:33.356Z,45.26
2023-04-07T10:51:20.297Z,45.76
2023-04-07T10:54:23.792Z,45.23
2023-04-07T10:57:14.429Z,44.71
2023-04-07T10:59:47.019Z,44.27
2023-04-07T11:02:37.285Z,44.42
2023-04-07T11:05:05.872Z,44.37
2023-04-07T11:07:51.708Z,45.31
2023-04-07T11:10:22.102Z,45.42
2023-04-07T11:13:00.702Z,44.31
2023-04-07T11:15:28.789Z,43.79
2023-04-07T11:18:16.685Z,42.71
2023-04-07T11:20:49.873Z,43.06
2023-04-07T11:23:19.182Z,43.59
2023-04-07T11:25:49.867Z,44.16
2023-04-07T11:28:18.024Z,42.59
2023-04-07T11:30:48.596Z,43.21
2023-04-07T11:33:18.616Z,43.55
2023-04-07T11:35:55.514Z,42.17
2023-04-07T11:38:24.791Z,42.16
2023-04-07T11:40:54.356Z,41.08
2023-04-07T11:43:24.225Z,40.40
2023-04-07T11:46:07.968Z,40.12
2023-04-07T11:48:37.179Z,37.90
2023-04-07T11:51:05.553Z,37.85
2023-04-07T11:53:35.194Z,37.72
2023-04-07T11:56:10.087Z,37.12
2023-04-07T11:58:38.669Z,37.80
2023-04-07T12:01:08.992Z,37.83
2023-04-07T12:03:38.506Z,36.86
2023-04-07T12:06:07.123Z,37.45
2023-04-07T12:08:40.061Z,36.14
2023-04-07T12:11:10.119Z,36.15
2023-04-07T12:13:38.596Z,34.96
2023-04-07T12:16:06.917Z,36.49
2023-04-07T12:18:34.748Z,35.43
2023-04-07T12:21:02.637Z,37.82
2023-04-07T12:23:30.497Z,37.20
2023-04-07T12:25:58.383Z,35.87
2023-04-07T12:28:27.648Z,35.90
2023-04-07T12:30:55.900Z,37.47
2023-04-07T12:33:23.710Z,36.38
2023-04-07T12:35:51.843Z,36.55
2023-04-07T12:38:19.846Z,36.20
2023-04-07T12:40:47.774Z,36.52
2023-04-07T12:43:15.669Z,36.36
2023-04-07T12:45:45.037Z,36.18
2023-04-07T12:48:12.872Z,35.84
2023-04-07T12:50:41.013Z,33.19
2023-04-07T12:53:09.311Z,35.30
2023-04-07T12:55:37.419Z,36.21
2023-04-07T12:58:05.707Z,35.28
2023-04-07T13:00:33.599Z,35.79
2023-04-07T13:03:03.648Z,35.68
2023-04-07T13:05:31.756Z,35.62
2023-04-07T13:07:59.725Z,35.94
2023-04-07T13:10:27.697Z,36.14
2023-04-07T13:12:55.656Z,36.74
2023-04-07T13:15:23.508Z,36.44
2023-04-07T13:17:52.107Z,34.17
2023-04-07T13:20:21.869Z,33.54
2023-04-07T13:23:02.786Z,34.82
2023-04-07T13:25:33.857Z,35.71
2023-04-07T13:28:01.689Z,35.40
2023-04-07T13:30:29.513Z,36.21
2023-04-07T13:32:57.473Z,36.62
2023-04-07T13:35:27.133Z,36.72
2023-04-07T13:37:54.959Z,37.14
2023-04-07T13:40:23.444Z,37.07
2023-04-07T13:42:51.343Z,36.50
2023-04-07T13:45:19.240Z,36.43
2023-04-07T13:47:47.465Z,37.34
2023-04-07T13:50:15.821Z,37.95
2023-04-07T13:52:45.131Z,37.96
2023-04-07T13:55:12.906Z,37.09
2023-04-07T13:57:40.949Z,37.58
2023-04-07T14:00:09.754Z,36.77
2023-04-07T14:02:38.515Z,36.95
2023-04-07T14:05:07.252Z,36.60
2023-04-07T14:07:35.010Z,36.86
2023-04-07T14:10:04.504Z,36.86
2023-04-07T14:12:32.626Z,36.56
2023-04-07T14:15:00.548Z,37.15
2023-04-07T14:17:28.411Z,36.05
2023-04-07T14:19:56.345Z,36.31
2023-04-07T14:22:24.249Z,36.19
2023-04-07T14:24:52.169Z,36.43
2023-04-07T14:27:22.346Z,36.10
2023-04-07T14:29:50.340Z,36.95
2023-04-07T14:32:18.309Z,36.92
2023-04-07T14:34:46.117Z,37.67
2023-04-07T14:37:14.143Z,36.74
2023-04-07T14:39:48.514Z,37.12
2023-04-07T14:42:24.973Z,36.12
2023-04-07T14:44:53.146Z,36.01
2023-04-07T14:47:21.200Z,36.36
2023-04-07T14:49:51.166Z,36.77
2023-04-07T14:52:20.630Z,36.81
2023-04-07T14:54:48.509Z,36.95
2023-04-07T14:57:16.402Z,36.33
2023-04-07T14:59:45.997Z,36.43
2023-04-07T15:02:13.880Z,36.98
2023-04-07T15:04:42.040Z,36.27
2023-04-07T15:07:09.969Z,36.38
2023-04-07T15:09:37.847Z,36.22
2023-04-07T15:12:05.740Z,36.28
2023-04-07T15:14:33.536Z,36.71
2023-04-07T15:17:02.742Z,36.17
2023-04-07T15:19:30.817Z,36.75
2023-04-07T15:21:58.680Z,36.43
2023-04-07T15:24:26.410Z,36.68
2023-04-07T15:26:55.355Z,37.25
2023-04-07T15:29:23.219Z,36.60
2023-04-07T15:31:51.371Z,36.39
2023-04-07T15:34:20.574Z,36.66
2023-04-07T15:36:48.438Z,36.16
2023-04-07T15:39:16.822Z,37.19
2023-04-07T15:41:44.727Z,37.80
2023-04-07T15:44:18.265Z,37.11
2023-04-07T15:46:46.623Z,36.95
2023-04-07T15:49:19.866Z,36.97
2023-04-07T15:51:49.258Z,36.70
2023-04-07T15:54:17.046Z,36.92
2023-04-07T15:56:44.804Z,37.18
2023-04-07T15:59:12.721Z,36.93
2023-04-07T16:01:40.720Z,37.20
2023-04-07T16:04:08.845Z,37.05
2023-04-07T16:06:36.796Z,37.69
2023-04-07T16:09:06.089Z,37.38
2023-04-07T16:11:33.948Z,37.14
2023-04-07T16:14:01.757Z,37.50
2023-04-07T16:16:29.645Z,37.84
2023-04-07T16:18:57.454Z,37.17
2023-04-07T16:21:27.304Z,37.63
2023-04-07T16:23:55.174Z,37.65
2023-04-07T16:26:24.400Z,37.78
2023-04-07T16:28:52.367Z,37.67
2023-04-07T16:31:20.296Z,37.61
2023-04-07T16:33:48.361Z,37.41
2023-04-07T16:36:16.560Z,37.09
2023-04-07T16:38:44.389Z,37.43
2023-04-07T16:41:12.386Z,37.47
2023-04-07T16:43:41.550Z,37.62
2023-04-07T16:46:09.380Z,37.34
2023-04-07T16:48:37.205Z,37.77
2023-04-07T16:51:05.144Z,37.69
2023-04-07T16:53:32.898Z,37.95
2023-04-07T16:56:00.716Z,37.89
2023-04-07T16:58:28.572Z,37.70
2023-04-07T17:00:57.741Z,37.65
2023-04-07T17:03:25.618Z,37.57
2023-04-07T17:05:53.723Z,38.16
2023-04-07T17:08:21.515Z,37.73
2023-04-07T17:10:49.361Z,37.68
2023-04-07T17:13:17.119Z,38.11
2023-04-07T17:15:44.951Z,37.65
2023-04-07T17:18:14.195Z,37.07
2023-04-07T17:20:42.031Z,37.20
2023-04-07T17:23:10.396Z,37.42
2023-04-07T17:25:38.371Z,37.97
2023-04-07T17:28:06.146Z,38.26
2023-04-07T17:30:34.108Z,37.68
2023-04-07T17:33:03.533Z,37.15
2023-04-07T17:35:32.767Z,36.85
2023-04-07T17:38:02.615Z,37.17
2023-04-07T17:40:30.598Z,37.62
2023-04-07T17:42:58.858Z,38.21
2023-04-07T17:45:26.676Z,37.78
2023-04-07T17:47:54.820Z,37.93
2023-04-07T17:50:22.862Z,37.95
2023-04-07T17:52:52.018Z,38.14
2023-04-07T17:55:20.032Z,38.15
2023-04-07T17:57:47.865Z,38.54
2023-04-07T18:00:16.001Z,38.72
2023-04-07T18:02:44.206Z,38.66
2023-04-07T18:05:12.774Z,38.77
2023-04-07T18:07:40.535Z,39.02
2023-04-07T18:10:11.028Z,39.12
2023-04-07T18:12:39.454Z,39.13
2023-04-07T18:15:08.566Z,39.68
2023-04-07T18:17:36.369Z,39.98
2023-04-07T18:20:04.605Z,39.82
2023-04-07T18:22:32.874Z,40.33
2023-04-07T18:25:02.195Z,40.53
2023-04-07T18:27:31.339Z,42.04
2023-04-07T18:29:59.148Z,40.47
2023-04-07T18:32:26.987Z,40.42
2023-04-07T18:34:54.838Z,40.60
2023-04-07T18:37:22.787Z,40.38
2023-04-07T18:39:52.074Z,40.72
2023-04-07T18:42:19.867Z,41.15
2023-04-07T18:44:49.049Z,41.12
2023-04-07T18:47:17.240Z,41.29
2023-04-07T18:49:45.166Z,41.34
2023-04-07T18:52:12.989Z,41.31
2023-04-07T18:54:40.814Z,42.48
2023-04-07T18:57:08.612Z,42.45
2023-04-07T18:59:36.493Z,43.27
2023-04-07T19:02:05.768Z,43.69
2023-04-07T19:04:33.607Z,44.60
2023-04-07T19:07:01.444Z,45.47
2023-04-07T19:09:29.495Z,46.08
2023-04-07T19:11:57.844Z,46.47
2023-04-07T19:14:25.841Z,46.59
2023-04-07T19:16:53.811Z,46.21
2023-04-07T19:19:22.955Z,46.47
2023-04-07T19:21:51.418Z,46.36
2023-04-07T19:24:19.167Z,45.69
2023-04-07T19:26:47.169Z,45.03
2023-04-07T19:29:14.982Z,44.80
2023-04-07T19:31:42.812Z,45.07
2023-04-07T19:34:10.983Z,45.36
2023-04-07T19:36:40.169Z,45.85
2023-04-07T19:39:07.972Z,45.80
2023-04-07T19:41:35.870Z,46.37
2023-04-07T19:44:03.666Z,46.09
2023-04-07T19:46:33.260Z,46.88
2023-04-07T19:49:01.196Z,46.68
2023-04-07T19:51:29.113Z,46.75
2023-04-07T19:53:58.266Z,46.98
2023-04-07T19:56:26.061Z,47.90
2023-04-07T19:58:54.201Z,47.40
2023-04-07T20:01:22.131Z,46.98
2023-04-07T20:03:50.149Z,47.75
2023-04-07T20:06:19.043Z,48.68
2023-04-07T20:08:48.309Z,48.78
2023-04-07T20:11:17.783Z,48.79
2023-04-07T20:13:45.591Z,48.98
2023-04-07T20:16:14.041Z,49.07
2023-04-07T20:18:42.154Z,49.05
2023-04-07T20:21:10.726Z,49.27
2023-04-07T20:23:38.671Z,49.44
2023-04-07T20:26:07.085Z,49.15
2023-04-07T20:28:36.387Z,49.15
2023-04-07T20:31:04.277Z,49.35
2023-04-07T20:33:32.180Z,49.16
2023-04-07T20:36:00.080Z,49.33
2023-04-07T20:38:27.867Z,49.74
2023-04-07T20:40:56.007Z,50.24
2023-04-07T20:43:23.965Z,49.44
2023-04-07T20:45:53.320Z,50.12
2023-04-07T20:48:23.758Z,50.00
2023-04-07T20:50:52.230Z,50.45
2023-04-07T20:53:20.167Z,50.02
2023-04-07T20:55:48.416Z,50.58
2023-04-07T20:58:17.628Z,50.09
2023-04-07T21:00:45.547Z,50.84
2023-04-07T21:03:15.032Z,50.18
2023-04-07T21:05:43.432Z,50.25
2023-04-07T21:08:13.244Z,49.56
2023-04-07T21:10:42.311Z,49.72
2023-04-07T21:13:10.102Z,50.64
2023-04-07T21:15:38.020Z,50.50
2023-04-07T21:18:05.995Z,50.24
2023-04-07T21:20:36.947Z,50.69
2023-04-07T21:23:05.346Z,51.21
2023-04-07T21:25:33.275Z,52.37
2023-04-07T21:28:01.156Z,52.92
2023-04-07T21:30:28.980Z,53.88
2023-04-07T21:32:56.991Z,54.90
2023-04-07T21:35:27.679Z,56.46
2023-04-07T21:37:57.183Z,56.93
2023-04-07T21:40:24.915Z,58.86
2023-04-07T21:42:52.927Z,59.97
2023-04-07T21:45:20.722Z,60.11
2023-04-07T21:47:48.596Z,61.64
2023-04-07T21:50:16.806Z,61.62
2023-04-07T21:52:44.662Z,61.91
2023-04-07T21:55:13.895Z,63.54
2023-04-07T21:57:41.700Z,63.65
2023-04-07T22:00:12.000Z,64.54
2023-04-07T22:02:42.859Z,64.71
2023-04-07T22:05:11.316Z,65.15
2023-04-07T22:07:39.182Z,65.51
2023-04-07T22:10:08.427Z,65.37
2023-04-07T22:12:37.587Z,65.15
2023-04-07T22:15:06.294Z,66.20
2023-04-07T22:17:34.297Z,66.29
2023-04-07T22:20:02.115Z,66.38
2023-04-07T22:22:30.013Z,66.62
2023-04-07T22:24:57.811Z,67.72
2023-04-07T22:27:27.320Z,67.51
2023-04-07T22:29:56.550Z,67.65
2023-04-07T22:32:24.354Z,67.25
2023-04-07T22:34:52.183Z,67.85
2023-04-07T22:37:20.320Z,67.66
2023-04-07T22:39:48.098Z,68.57
2023-04-07T22:42:16.001Z,68.65
2023-04-07T22:44:43.753Z,67.85
2023-04-07T22:47:12.923Z,68.02
2023-04-07T22:49:40.744Z,68.24
2023-04-07T22:52:08.575Z,68.21
2023-04-07T22:54:36.593Z,68.07
2023-04-07T22:57:04.405Z,68.67
2023-04-07T22:59:32.295Z,69.32
2023-04-07T23:02:00.259Z,68.96
2023-04-07T23:04:29.550Z,70.07
2023-04-07T23:06:57.338Z,69.23
2023-04-07T23:09:25.654Z,68.95
2023-04-07T23:11:53.656Z,68.66
2023-04-07T23:14:21.491Z,69.27
2023-04-07T23:16:49.373Z,69.53
2023-04-07T23:19:17.708Z,70.45
2023-04-07T23:21:46.957Z,71.50
2023-04-07T23:24:14.825Z,70.74
2023-04-07T23:26:42.620Z,72.12
2023-04-07T23:29:10.986Z,71.11
2023-04-07T23:31:38.937Z,72.01
2023-04-07T23:34:07.059Z,72.82
2023-04-07T23:36:34.909Z,72.48
2023-04-07T23:39:04.196Z,71.55
2023-04-07T23:41:32.260Z,72.16
2023-04-07T23:44:00.300Z,72.95
2023-04-07T23:46:28.274Z,73.65
2023-04-07T23:48:56.302Z,72.55
2023-04-07T23:51:24.076Z,72.03
2023-04-07T23:53:52.172Z,71.33
2023-04-07T23:56:21.359Z,72.07
2023-04-07T23:58:49.845Z,71.44
